Time;durP1;ratioP1;P1;durP2;ratioP2;P2;SDS_P1;SDS_P2;PMS_P1;PMS_P2;Temp;Humidity;BMP_temperature;BMP_pressure;BME280_temperature;BME280_humidity;BME280_pressure;Samples;Min_cycle;Max_cycle;Signal;HPM_P1;HPM_P2
2024/03/13 00:01:50;;;;;;;38.25;20.48;;;4.60;99.90;;;;;;5032995;28;20331;-60
2024/03/13 00:04:17;;;;;;;38.85;20.67;;;4.60;99.90;;;;;;5033081;28;20209;-60
2024/03/13 00:06:44;;;;;;;47.15;25.20;;;4.60;99.90;;;;;;5032814;28;20202;-58
2024/03/13 00:09:11;;;;;;;44.08;22.35;;;4.50;99.90;;;;;;5032113;28;20593;-59
2024/03/13 00:11:38;;;;;;;47.38;24.05;;;4.60;99.90;;;;;;5032167;28;20723;-61
2024/03/13 00:14:05;;;;;;;41.45;23.40;;;4.60;99.90;;;;;;5032729;28;20198;-60
2024/03/13 00:16:33;;;;;;;33.30;19.58;;;4.60;99.90;;;;;;5032824;28;20593;-59
2024/03/13 00:19:00;;;;;;;42.70;24.15;;;4.60;99.90;;;;;;5032410;28;20751;-60
2024/03/13 00:21:28;;;;;;;46.53;24.00;;;4.60;99.90;;;;;;5032614;28;20221;-61
2024/03/13 00:23:55;;;;;;;39.60;22.08;;;4.60;99.90;;;;;;5032620;28;20198;-59
2024/03/13 00:26:22;;;;;;;41.45;23.77;;;4.60;99.90;;;;;;5032250;28;20621;-60
2024/03/13 00:28:49;;;;;;;43.13;24.02;;;4.70;99.90;;;;;;5034506;28;20206;-59
2024/03/13 00:31:15;;;;;;;49.83;26.13;;;4.70;99.90;;;;;;5037146;28;20248;-60
2024/03/13 00:33:44;;;;;;;41.80;22.75;;;4.70;99.90;;;;;;5036852;28;20198;-59
2024/03/13 00:36:12;;;;;;;45.88;22.63;;;4.80;99.90;;;;;;5037072;28;20205;-58
2024/03/13 00:38:38;;;;;;;42.63;24.05;;;4.90;99.90;;;;;;5043060;28;20603;-60
2024/03/13 00:41:05;;;;;;;39.92;22.83;;;4.90;99.90;;;;;;5042416;28;20202;-60
2024/03/13 00:43:32;;;;;;;46.45;23.90;;;5.00;99.90;;;;;;5038268;28;20209;-59
2024/03/13 00:45:59;;;;;;;41.78;21.50;;;5.10;99.90;;;;;;5036522;28;20213;-59
2024/03/13 00:48:31;;;;;;;40.85;23.48;;;5.20;99.90;;;;;;5036517;28;20217;-59
2024/03/13 00:51:00;;;;;;;44.38;21.95;;;5.20;99.90;;;;;;5036232;28;20632;-59
2024/03/13 00:53:27;;;;;;;40.35;22.55;;;5.30;99.90;;;;;;5036408;28;20198;-58
2024/03/13 00:55:54;;;;;;;42.40;21.02;;;5.30;99.90;;;;;;5036283;28;20202;-59
2024/03/13 00:58:22;;;;;;;44.97;23.42;;;5.40;99.90;;;;;;5039562;28;20719;-59
2024/03/13 01:00:49;;;;;;;41.67;22.45;;;5.40;99.90;;;;;;5037195;28;20241;-60
2024/03/13 01:03:19;;;;;;;36.13;20.42;;;5.40;99.90;;;;;;5038010;28;20637;-60
2024/03/13 01:05:45;;;;;;;38.40;20.75;;;5.30;99.90;;;;;;5037165;28;20203;-59
2024/03/13 01:08:14;;;;;;;38.75;20.85;;;5.30;99.90;;;;;;5037678;28;20229;-60
2024/03/13 01:10:41;;;;;;;38.25;22.42;;;5.20;99.90;;;;;;5035699;28;20229;-60
2024/03/13 01:13:06;;;;;;;36.25;22.23;;;5.20;99.90;;;;;;5035759;28;20218;-60
2024/03/13 01:15:33;;;;;;;38.60;21.40;;;5.10;99.90;;;;;;5035534;28;20688;-59
2024/03/13 01:17:59;;;;;;;38.85;22.10;;;5.00;99.90;;;;;;5035564;28;20233;-59
2024/03/13 01:20:26;;;;;;;38.07;20.87;;;4.90;99.90;;;;;;5035727;28;20209;-59
2024/03/13 01:22:56;;;;;;;36.08;20.73;;;4.90;99.90;;;;;;5035763;28;20277;-59
2024/03/13 01:25:24;;;;;;;33.22;20.20;;;4.80;99.90;;;;;;5035715;28;20628;-59
2024/03/13 01:27:51;;;;;;;34.60;20.92;;;4.70;99.90;;;;;;5035343;28;20298;-60
2024/03/13 01:30:17;;;;;;;36.38;20.13;;;4.70;99.90;;;;;;5035627;28;20663;-59
2024/03/13 01:32:44;;;;;;;40.67;22.88;;;4.70;99.90;;;;;;5035872;28;20223;-60
2024/03/13 01:35:11;;;;;;;41.60;19.88;;;4.70;99.90;;;;;;5035295;28;20210;-59
2024/03/13 01:37:55;;;;;;;41.58;22.50;;;4.60;99.90;;;;;;5035646;28;20203;-59
2024/03/13 01:40:27;;;;;;;35.42;20.02;;;4.60;99.90;;;;;;5035970;28;20278;-59
2024/03/13 01:54:53;;;;;;;38.58;20.20;;;4.50;99.90;;;;;;5036226;28;20241;-59
2024/03/13 01:57:31;;;;;;;36.63;19.95;;;4.50;99.90;;;;;;5035433;28;20703;-61
2024/03/13 02:02:46;;;;;;;34.28;19.15;;;4.40;99.90;;;;;;5035182;28;20305;-60
2024/03/13 02:05:14;;;;;;;39.40;20.05;;;4.40;99.90;;;;;;5035026;28;20206;-58
2024/03/13 02:07:41;;;;;;;44.00;21.70;;;4.40;99.90;;;;;;5035461;28;20207;-60
2024/03/13 02:10:08;;;;;;;45.17;21.52;;;4.30;99.90;;;;;;5035222;28;20203;-59
2024/03/13 02:12:36;;;;;;;43.63;20.90;;;4.30;99.90;;;;;;5035617;28;20222;-59
2024/03/13 02:15:04;;;;;;;41.40;22.05;;;4.30;99.90;;;;;;5034564;28;20676;-60
2024/03/13 02:17:37;;;;;;;41.33;21.08;;;4.30;99.90;;;;;;5035016;28;20597;-60
2024/03/13 02:20:06;;;;;;;43.63;22.83;;;4.30;99.90;;;;;;5034714;28;20694;-59
2024/03/13 02:22:36;;;;;;;44.80;22.48;;;4.30;99.90;;;;;;5034727;28;20664;-57
2024/03/13 02:25:03;;;;;;;51.17;24.05;;;4.30;99.90;;;;;;5034813;28;20703;-57
2024/03/13 02:27:30;;;;;;;43.97;20.92;;;4.30;99.90;;;;;;5033968;28;20810;-60
2024/03/13 02:29:58;;;;;;;41.63;23.60;;;4.30;99.90;;;;;;5033515;28;20199;-61
2024/03/13 02:32:24;;;;;;;38.08;20.98;;;4.30;99.90;;;;;;5033579;28;20226;-60
2024/03/13 02:34:51;;;;;;;46.83;23.48;;;4.20;99.90;;;;;;5033230;28;20206;-59
2024/03/13 02:37:18;;;;;;;44.33;23.08;;;4.20;99.90;;;;;;5033138;28;20202;-60
2024/03/13 02:39:45;;;;;;;41.10;20.95;;;4.20;99.90;;;;;;5033334;28;20245;-60
2024/03/13 02:42:12;;;;;;;49.10;23.42;;;4.20;99.90;;;;;;5033166;28;20229;-60
2024/03/13 02:44:40;;;;;;;39.28;22.70;;;4.10;99.90;;;;;;5033015;28;20202;-58
2024/03/13 02:47:07;;;;;;;37.83;20.58;;;4.10;99.90;;;;;;5033703;28;20297;-60
2024/03/13 02:49:35;;;;;;;40.95;21.60;;;4.10;99.90;;;;;;5032979;28;20209;-59
2024/03/13 02:52:04;;;;;;;45.10;21.70;;;4.10;99.90;;;;;;5031671;28;20738;-64
2024/03/13 02:54:31;;;;;;;43.60;21.80;;;4.10;99.90;;;;;;5033048;28;20206;-59
2024/03/13 02:56:58;;;;;;;44.17;22.42;;;4.00;99.90;;;;;;5032483;28;20293;-59
2024/03/13 02:59:25;;;;;;;49.15;23.58;;;4.00;99.90;;;;;;5032955;28;20226;-59
2024/03/13 03:01:52;;;;;;;45.95;21.85;;;4.00;99.90;;;;;;5033056;28;20252;-60
2024/03/13 03:04:19;;;;;;;42.85;22.80;;;4.00;99.90;;;;;;5033694;28;20229;-60
2024/03/13 03:06:46;;;;;;;47.15;22.00;;;4.00;99.90;;;;;;5033284;28;20597;-59
2024/03/13 03:09:13;;;;;;;43.47;22.65;;;4.00;99.90;;;;;;5032392;28;20201;-59
2024/03/13 03:11:42;;;;;;;42.67;22.50;;;3.90;99.90;;;;;;5032824;28;20262;-59
2024/03/13 03:14:10;;;;;;;44.70;23.45;;;3.90;99.90;;;;;;5035607;28;20246;-59
2024/03/13 03:16:36;;;;;;;44.75;24.35;;;3.90;99.90;;;;;;5035815;28;20208;-59
2024/03/13 03:19:03;;;;;;;45.45;22.48;;;3.90;99.90;;;;;;5033552;28;20222;-59
2024/03/13 03:21:30;;;;;;;49.08;24.10;;;3.90;99.90;;;;;;5033419;28;20222;-59
2024/03/13 03:23:57;;;;;;;45.95;21.85;;;3.90;99.90;;;;;;5033424;28;20665;-59
2024/03/13 03:26:28;;;;;;;45.33;23.23;;;3.90;99.90;;;;;;5032104;28;20653;-59
2024/03/13 03:28:54;;;;;;;44.78;22.73;;;3.90;99.90;;;;;;5032273;28;20271;-60
2024/03/13 03:31:23;;;;;;;42.80;22.25;;;3.90;99.90;;;;;;5033717;28;20229;-58
2024/03/13 03:33:51;;;;;;;48.35;23.15;;;3.90;99.90;;;;;;5033052;28;20608;-59
2024/03/13 03:36:18;;;;;;;44.50;22.08;;;3.80;99.90;;;;;;5032521;28;20217;-58
2024/03/13 03:38:45;;;;;;;46.50;22.77;;;3.80;99.90;;;;;;5031951;28;20222;-59
2024/03/13 03:41:12;;;;;;;51.05;23.48;;;3.80;99.90;;;;;;5031834;28;20280;-59
2024/03/13 03:43:39;;;;;;;48.33;23.55;;;3.70;99.90;;;;;;5031835;28;20203;-59
2024/03/13 03:46:06;;;;;;;40.20;22.35;;;3.70;99.90;;;;;;5031625;28;20197;-59
2024/03/13 03:48:33;;;;;;;43.83;21.70;;;3.70;99.90;;;;;;5031690;28;20194;-60
2024/03/13 03:50:59;;;;;;;47.70;22.33;;;3.70;99.90;;;;;;5031521;28;20209;-60
2024/03/13 03:53:27;;;;;;;41.78;22.30;;;3.70;99.90;;;;;;5031546;28;20217;-59
2024/03/13 03:55:54;;;;;;;48.83;21.60;;;3.60;99.90;;;;;;5031719;28;20202;-59
2024/03/13 03:58:21;;;;;;;37.45;20.58;;;3.60;99.90;;;;;;5031216;28;20206;-59
2024/03/13 04:00:48;;;;;;;41.15;22.58;;;3.70;99.90;;;;;;5031181;28;20672;-59
2024/03/13 04:03:15;;;;;;;39.72;21.77;;;3.60;99.90;;;;;;5031059;28;20210;-58
2024/03/13 04:05:42;;;;;;;45.88;22.02;;;3.70;99.90;;;;;;5031847;28;20202;-58
2024/03/13 04:08:09;;;;;;;41.55;22.35;;;3.70;99.90;;;;;;5032069;28;20209;-60
2024/03/13 04:13:19;;;;;;;45.88;21.80;;;3.70;99.90;;;;;;5179478;27;20531;-61
2024/03/13 04:15:47;;;;;;;41.38;21.55;;;3.70;99.90;;;;;;5159627;27;20345;-62
2024/03/13 04:18:14;;;;;;;42.47;20.85;;;3.70;99.90;;;;;;5165073;27;20251;-61
2024/03/13 04:20:43;;;;;;;45.00;22.30;;;3.70;99.90;;;;;;5154662;27;20209;-61
2024/03/13 04:23:09;;;;;;;40.95;21.45;;;3.70;99.90;;;;;;5130046;27;20821;-61
2024/03/13 04:25:37;;;;;;;45.70;23.60;;;3.70;99.90;;;;;;5126319;22;20265;-61
2024/03/13 04:28:04;;;;;;;45.08;22.38;;;3.70;99.90;;;;;;5054700;28;20258;-61
2024/03/13 04:30:31;;;;;;;49.72;23.75;;;3.70;99.90;;;;;;5055160;28;20220;-62
2024/03/13 04:32:58;;;;;;;43.72;22.45;;;3.70;99.90;;;;;;5055523;28;20551;-63
2024/03/13 04:35:25;;;;;;;48.35;22.55;;;3.70;99.90;;;;;;5055240;28;20247;-62
2024/03/13 04:37:52;;;;;;;39.33;21.45;;;3.70;99.90;;;;;;5054805;28;20204;-62
2024/03/13 04:40:19;;;;;;;46.33;22.95;;;3.70;99.90;;;;;;5053452;28;20201;-62
2024/03/13 04:42:46;;;;;;;45.38;24.20;;;3.70;99.90;;;;;;5053765;28;20618;-62
2024/03/13 04:45:13;;;;;;;49.70;22.55;;;3.70;99.90;;;;;;5053379;28;20229;-63
2024/03/13 04:47:40;;;;;;;47.90;24.92;;;3.70;99.90;;;;;;5053898;28;20201;-62
2024/03/13 04:50:08;;;;;;;47.25;22.60;;;3.80;99.90;;;;;;5053300;28;20209;-62
2024/03/13 04:52:35;;;;;;;44.85;22.13;;;3.80;99.90;;;;;;5052721;28;20315;-62
2024/03/13 04:55:02;;;;;;;45.33;24.25;;;3.80;99.90;;;;;;5055006;28;20225;-62
2024/03/13 04:57:29;;;;;;;46.55;22.80;;;3.80;99.90;;;;;;5062892;28;20212;-63
2024/03/13 04:59:56;;;;;;;48.47;23.30;;;3.80;99.90;;;;;;5060036;28;20207;-65
2024/03/13 05:02:24;;;;;;;49.60;22.67;;;3.80;99.90;;;;;;5055401;28;20661;-62
2024/03/13 05:04:50;;;;;;;49.97;23.45;;;3.80;99.90;;;;;;5055570;28;20284;-62
2024/03/13 05:07:18;;;;;;;47.25;23.60;;;3.80;99.90;;;;;;5055479;28;20212;-61
2024/03/13 05:09:46;;;;;;;58.45;24.67;;;3.80;99.90;;;;;;5055568;28;20232;-60
2024/03/13 05:12:13;;;;;;;41.45;23.25;;;3.90;99.90;;;;;;5054691;28;20227;-62
2024/03/13 05:14:40;;;;;;;47.78;23.73;;;3.90;99.90;;;;;;5053942;28;20213;-61
2024/03/13 05:17:09;;;;;;;43.40;20.85;;;4.00;99.90;;;;;;5054561;28;20208;-61
2024/03/13 05:19:36;;;;;;;47.22;23.80;;;4.00;99.90;;;;;;5053818;28;20208;-61
2024/03/13 05:22:04;;;;;;;45.28;22.85;;;4.00;99.90;;;;;;5054434;28;20205;-63
2024/03/13 05:24:32;;;;;;;42.42;21.92;;;4.00;99.90;;;;;;5041173;28;20206;-62
2024/03/13 05:26:59;;;;;;;44.50;22.90;;;4.00;99.90;;;;;;5040980;28;20202;-61
2024/03/13 05:29:27;;;;;;;36.53;20.00;;;4.00;99.90;;;;;;5041050;28;20198;-63
2024/03/13 05:31:54;;;;;;;43.30;22.83;;;4.00;99.90;;;;;;5040941;28;20229;-62
2024/03/13 05:34:21;;;;;;;37.78;22.05;;;4.00;99.90;;;;;;5040627;28;20292;-62
2024/03/13 05:36:48;;;;;;;39.60;21.02;;;4.00;99.90;;;;;;5039497;28;20222;-61
2024/03/13 05:39:15;;;;;;;42.38;22.30;;;4.00;99.90;;;;;;5040245;28;20210;-62
2024/03/13 05:41:45;;;;;;;45.15;22.48;;;4.00;99.90;;;;;;5039734;28;20194;-61
2024/03/13 05:44:12;;;;;;;38.78;19.90;;;4.00;99.90;;;;;;5040314;28;20201;-62
2024/03/13 05:46:39;;;;;;;40.63;22.13;;;4.00;99.90;;;;;;5044769;28;20217;-62
2024/03/13 05:49:06;;;;;;;47.33;22.65;;;4.10;99.90;;;;;;5051810;28;20212;-61
2024/03/13 05:51:34;;;;;;;42.45;20.33;;;4.10;99.90;;;;;;5043782;28;20259;-62
2024/03/13 05:54:02;;;;;;;42.55;20.15;;;4.10;99.90;;;;;;5043845;28;20730;-62
2024/03/13 05:56:29;;;;;;;37.13;20.38;;;4.10;99.90;;;;;;5045937;28;20222;-62
2024/03/13 05:58:57;;;;;;;40.65;21.67;;;4.20;99.90;;;;;;5046413;28;20276;-61
2024/03/13 06:01:26;;;;;;;42.33;21.20;;;4.20;99.90;;;;;;5045384;28;20202;-62
2024/03/13 06:03:54;;;;;;;38.70;18.60;;;4.30;99.90;;;;;;5043506;28;20264;-61
2024/03/13 06:06:22;;;;;;;44.70;22.13;;;4.30;99.90;;;;;;5041090;28;20242;-62
2024/03/13 06:08:49;;;;;;;40.55;20.02;;;4.30;99.90;;;;;;5039934;28;20205;-62
2024/03/13 06:11:18;;;;;;;36.85;20.02;;;4.40;99.90;;;;;;5039538;28;20209;-62
2024/03/13 06:13:45;;;;;;;37.55;19.35;;;4.40;99.90;;;;;;5040179;28;20225;-60
2024/03/13 06:16:12;;;;;;;40.20;20.50;;;4.50;99.90;;;;;;5039579;28;20232;-61
2024/03/13 06:18:40;;;;;;;43.33;19.63;;;4.60;99.90;;;;;;5038803;28;20702;-62
2024/03/13 06:21:07;;;;;;;37.47;21.30;;;4.60;99.90;;;;;;5038549;28;20202;-61
2024/03/13 06:23:36;;;;;;;36.45;20.52;;;4.70;99.90;;;;;;5038475;28;20206;-62
2024/03/13 06:26:03;;;;;;;38.60;20.23;;;4.70;99.90;;;;;;5038593;28;20245;-61
2024/03/13 06:31:15;;;;;;;36.10;18.27;;;4.90;99.90;;;;;;5041111;28;20192;-63
2024/03/13 06:33:42;;;;;;;33.05;18.42;;;4.90;99.90;;;;;;5038466;28;20275;-62
2024/03/13 06:36:09;;;;;;;36.13;19.15;;;5.00;99.90;;;;;;5037645;28;20232;-62
2024/03/13 06:38:35;;;;;;;37.20;19.60;;;5.10;99.90;;;;;;5038562;28;20689;-60
2024/03/13 06:41:02;;;;;;;33.70;19.13;;;5.10;99.90;;;;;;5039021;28;20205;-63
2024/03/13 06:43:31;;;;;;;32.92;19.02;;;5.20;99.90;;;;;;5039071;28;20224;-61
2024/03/13 06:45:58;;;;;;;33.00;17.88;;;5.30;99.90;;;;;;5039037;28;20275;-61
2024/03/13 06:48:26;;;;;;;33.60;17.88;;;5.30;99.90;;;;;;5039379;28;20236;-61
2024/03/13 06:50:53;;;;;;;33.47;18.08;;;5.40;99.90;;;;;;5040147;28;20225;-61
2024/03/13 06:53:20;;;;;;;29.42;17.52;;;5.50;99.90;;;;;;5039182;28;20217;-62
2024/03/13 06:55:47;;;;;;;31.17;18.75;;;5.60;99.90;;;;;;5038166;28;20703;-62
2024/03/13 06:58:14;;;;;;;27.85;17.02;;;5.70;99.90;;;;;;5038414;28;20198;-63
2024/03/13 07:00:40;;;;;;;28.65;15.90;;;5.70;99.90;;;;;;5038166;28;20205;-61
2024/03/13 07:03:07;;;;;;;32.78;17.17;;;5.80;99.90;;;;;;5038238;28;20201;-60
2024/03/13 07:05:34;;;;;;;27.17;16.52;;;5.90;99.90;;;;;;5038793;28;20316;-62
2024/03/13 07:08:01;;;;;;;31.48;16.17;;;6.00;99.90;;;;;;5039662;28;20212;-61
2024/03/13 07:10:28;;;;;;;30.25;17.60;;;6.10;99.90;;;;;;5039888;28;20198;-61
2024/03/13 07:12:55;;;;;;;29.50;15.23;;;6.20;99.90;;;;;;5042417;28;20217;-61
2024/03/13 07:15:22;;;;;;;28.30;16.38;;;6.30;99.90;;;;;;5045058;28;20222;-61
2024/03/13 07:17:49;;;;;;;22.30;15.90;;;6.40;99.90;;;;;;5048804;28;20285;-62
2024/03/13 07:20:15;;;;;;;25.85;15.48;;;6.60;99.90;;;;;;5041542;28;20288;-61
2024/03/13 07:22:42;;;;;;;23.10;14.90;;;6.70;99.90;;;;;;5039605;28;20259;-59
2024/03/13 07:25:10;;;;;;;24.60;14.38;;;6.80;99.90;;;;;;5038159;28;20241;-62
2024/03/13 07:27:37;;;;;;;23.58;14.30;;;6.80;99.90;;;;;;5038394;28;20205;-62
2024/03/13 07:30:05;;;;;;;27.75;15.27;;;6.90;99.90;;;;;;5038074;28;20205;-61
2024/03/13 07:32:32;;;;;;;24.92;14.07;;;7.00;99.90;;;;;;5039275;28;20217;-63
2024/03/13 07:34:59;;;;;;;20.92;13.10;;;7.10;99.90;;;;;;5048903;28;20222;-62
2024/03/13 07:37:26;;;;;;;20.15;12.57;;;7.20;99.90;;;;;;5045042;28;20212;-61
2024/03/13 07:39:53;;;;;;;19.90;12.77;;;7.30;99.90;;;;;;5039879;28;20624;-62
2024/03/13 07:42:20;;;;;;;22.63;13.02;;;7.40;99.90;;;;;;5038406;28;20694;-61
2024/03/13 07:44:47;;;;;;;18.70;12.48;;;7.50;99.90;;;;;;5038105;28;20201;-63
2024/03/13 07:47:14;;;;;;;22.33;12.25;;;7.60;99.90;;;;;;5037776;28;20201;-63
2024/03/13 07:49:43;;;;;;;20.20;13.02;;;7.70;99.90;;;;;;5038089;28;20206;-61
2024/03/13 07:52:12;;;;;;;22.00;12.30;;;7.80;99.90;;;;;;5039276;28;20233;-60
2024/03/13 07:54:39;;;;;;;20.98;12.13;;;8.00;99.90;;;;;;5044159;28;20225;-61
2024/03/13 07:57:06;;;;;;;20.27;13.45;;;8.10;99.90;;;;;;5040953;28;20589;-61
2024/03/13 07:59:33;;;;;;;14.95;11.10;;;8.20;99.90;;;;;;5040390;28;20198;-61
2024/03/13 08:02:00;;;;;;;16.80;11.80;;;8.40;99.90;;;;;;5040199;28;20265;-61
2024/03/13 08:04:28;;;;;;;18.20;12.02;;;8.50;99.90;;;;;;5039058;28;20194;-60
2024/03/13 08:06:55;;;;;;;19.37;11.20;;;8.60;99.90;;;;;;5037689;28;20206;-60
2024/03/13 08:09:24;;;;;;;16.30;10.73;;;8.80;99.90;;;;;;5038568;28;20446;-60
2024/03/13 08:11:51;;;;;;;15.35;10.65;;;8.90;99.90;;;;;;5039032;28;20221;-60
2024/03/13 08:14:18;;;;;;;17.40;10.70;;;8.90;99.90;;;;;;5044286;28;20226;-60
2024/03/13 08:16:45;;;;;;;16.30;9.87;;;9.00;99.90;;;;;;5045054;28;20460;-61
2024/03/13 08:19:11;;;;;;;13.45;9.43;;;9.10;99.90;;;;;;5042705;28;20440;-60
2024/03/13 08:21:39;;;;;;;16.17;10.50;;;9.30;99.90;;;;;;5043156;28;20212;-59
2024/03/13 08:24:06;;;;;;;13.95;9.77;;;9.40;99.90;;;;;;5043205;28;20527;-60
2024/03/13 08:26:34;;;;;;;17.50;10.53;;;9.60;99.90;;;;;;5041254;28;20226;-60
2024/03/13 08:29:00;;;;;;;14.03;9.40;;;9.70;99.90;;;;;;5043451;28;20932;-61
2024/03/13 08:31:27;;;;;;;13.53;9.80;;;9.80;99.90;;;;;;5042905;28;20452;-59
2024/03/13 08:33:56;;;;;;;12.80;9.07;;;10.00;99.90;;;;;;5043295;28;20479;-64
2024/03/13 08:36:23;;;;;;;13.30;9.07;;;10.10;99.90;;;;;;5040519;28;20464;-62
2024/03/13 08:38:50;;;;;;;19.20;9.43;;;10.20;99.90;;;;;;5038981;28;20440;-62
2024/03/13 08:41:17;;;;;;;14.20;10.13;;;10.30;99.90;;;;;;5037910;28;20532;-63
2024/03/13 08:43:45;;;;;;;11.80;7.50;;;10.50;99.90;;;;;;5039002;28;20450;-63
2024/03/13 08:46:13;;;;;;;14.53;8.63;;;10.70;99.90;;;;;;5046890;28;20470;-63
2024/03/13 08:48:39;;;;;;;12.53;9.20;;;10.80;99.90;;;;;;5050171;28;20448;-62
2024/03/13 08:51:09;;;;;;;13.57;8.20;;;10.90;99.90;;;;;;5045380;28;20440;-61
2024/03/13 08:53:35;;;;;;;13.50;8.80;;;11.10;99.90;;;;;;5044507;28;20479;-62
2024/03/13 08:56:02;;;;;;;12.47;7.90;;;11.10;99.90;;;;;;5042664;28;20553;-63
2024/03/13 08:58:29;;;;;;;11.07;7.60;;;11.20;99.90;;;;;;5044422;28;20456;-63
2024/03/13 09:00:56;;;;;;;12.00;8.30;;;11.20;99.90;;;;;;5047560;28;20483;-63
2024/03/13 09:03:23;;;;;;;11.37;7.70;;;11.30;99.90;;;;;;5046677;28;20450;-63
2024/03/13 09:05:51;;;;;;;9.30;7.33;;;11.40;99.90;;;;;;5046953;28;21031;-62
2024/03/13 09:08:19;;;;;;;10.93;7.40;;;11.60;99.90;;;;;;5048101;28;20448;-63
2024/03/13 09:10:46;;;;;;;10.10;7.20;;;11.80;99.90;;;;;;5048717;28;20440;-64
2024/03/13 09:13:12;;;;;;;12.83;7.73;;;12.00;99.90;;;;;;5049771;28;20476;-62
2024/03/13 09:15:39;;;;;;;9.53;7.17;;;12.20;99.90;;;;;;5050602;28;20483;-63
2024/03/13 09:18:06;;;;;;;10.63;7.47;;;12.20;99.90;;;;;;5046748;28;20451;-64
2024/03/13 09:20:33;;;;;;;10.40;7.10;;;12.30;99.90;;;;;;5042980;28;20519;-63
2024/03/13 09:23:00;;;;;;;10.70;6.93;;;12.40;99.90;;;;;;5046050;28;20436;-62
2024/03/13 09:25:27;;;;;;;8.57;6.87;;;12.50;99.90;;;;;;5054831;28;20981;-63
2024/03/13 09:27:55;;;;;;;8.67;5.87;;;12.50;99.90;;;;;;5048561;28;20925;-63
2024/03/13 09:30:22;;;;;;;10.50;7.00;;;12.50;99.90;;;;;;5046011;28;20444;-63
2024/03/13 09:32:49;;;;;;;8.00;6.23;;;12.30;99.90;;;;;;5045102;28;20440;-62
2024/03/13 09:35:17;;;;;;;8.20;6.67;;;12.30;99.90;;;;;;5047062;28;20470;-63
2024/03/13 09:37:44;;;;;;;9.80;7.50;;;12.30;99.90;;;;;;5053196;28;20448;-62
2024/03/13 09:40:13;;;;;;;11.00;6.80;;;12.20;99.90;;;;;;5046424;28;20440;-64
2024/03/13 09:42:39;;;;;;;7.80;6.57;;;12.20;99.90;;;;;;5044162;28;20479;-62
2024/03/13 09:45:07;;;;;;;8.93;6.67;;;12.20;99.90;;;;;;5042196;28;20539;-63
2024/03/13 09:47:34;;;;;;;8.70;7.10;;;12.20;99.90;;;;;;5042378;28;20535;-62
2024/03/13 09:50:05;;;;;;;11.40;6.90;;;12.30;99.90;;;;;;5042045;28;20433;-63
2024/03/13 09:52:32;;;;;;;9.50;7.40;;;12.30;99.90;;;;;;5041951;28;20805;-63
2024/03/13 09:54:59;;;;;;;9.67;6.60;;;12.30;99.90;;;;;;5041023;28;20488;-62
2024/03/13 09:57:26;;;;;;;10.50;6.90;;;12.10;99.90;;;;;;5041980;28;20439;-63
2024/03/13 09:59:56;;;;;;;9.20;7.17;;;12.00;99.90;;;;;;5041799;28;20440;-63
2024/03/13 10:02:23;;;;;;;11.00;7.77;;;11.90;99.90;;;;;;5042214;28;20476;-62
2024/03/13 10:04:50;;;;;;;9.37;7.10;;;12.00;99.90;;;;;;5041328;28;20480;-63
2024/03/13 10:07:18;;;;;;;11.37;7.30;;;11.90;99.90;;;;;;5042614;28;20519;-63
2024/03/13 10:09:45;;;;;;;9.10;7.40;;;11.90;99.90;;;;;;5041989;28;20506;-63
2024/03/13 10:12:12;;;;;;;8.97;7.17;;;11.90;99.90;;;;;;5042037;28;20443;-63
2024/03/13 10:14:39;;;;;;;10.17;7.60;;;11.90;99.90;;;;;;5041911;28;21009;-64
2024/03/13 10:17:07;;;;;;;9.17;7.50;;;12.00;99.90;;;;;;5041551;28;20441;-63
2024/03/13 10:19:34;;;;;;;10.23;8.13;;;12.00;99.90;;;;;;5041958;28;20447;-64
2024/03/13 10:22:01;;;;;;;11.33;7.80;;;12.00;99.90;;;;;;5040966;28;20443;-63
2024/03/13 10:24:29;;;;;;;12.07;7.60;;;12.00;99.90;;;;;;5040976;28;20444;-63
2024/03/13 10:26:56;;;;;;;9.77;7.43;;;12.00;99.90;;;;;;5040748;28;20495;-62
2024/03/13 10:29:23;;;;;;;11.00;8.07;;;12.00;99.90;;;;;;5040956;28;20467;-62
2024/03/13 10:31:50;;;;;;;10.00;7.73;;;11.90;99.90;;;;;;5040892;28;20436;-62
2024/03/13 10:34:18;;;;;;;10.90;7.70;;;12.00;99.90;;;;;;5041556;28;20483;-62
2024/03/13 10:36:45;;;;;;;11.30;7.70;;;12.00;99.90;;;;;;5044585;28;20480;-62
2024/03/13 10:39:12;;;;;;;9.80;7.60;;;12.10;99.90;;;;;;5046311;28;20448;-62
2024/03/13 10:41:44;;;;;;;11.00;7.70;;;12.30;99.90;;;;;;5044066;28;20505;-63
2024/03/13 10:44:11;;;;;;;10.43;7.87;;;12.50;99.90;;;;;;5042985;28;20429;-63
2024/03/13 10:46:38;;;;;;;11.07;8.13;;;12.60;99.90;;;;;;5046054;28;20460;-62
2024/03/13 10:49:06;;;;;;;10.37;7.70;;;12.70;99.90;;;;;;5043914;28;20455;-63
2024/03/13 10:51:33;;;;;;;9.10;7.10;;;12.60;99.90;;;;;;5043909;28;20534;-64
2024/03/13 10:54:03;;;;;;;9.90;7.13;;;12.50;99.90;;;;;;5043341;28;20476;-61
2024/03/13 10:56:30;;;;;;;10.57;7.63;;;12.40;99.90;;;;;;5042657;28;20464;-63
2024/03/13 10:58:57;;;;;;;11.87;7.50;;;12.30;99.90;;;;;;5040858;28;20445;-63
2024/03/13 11:01:24;;;;;;;9.83;7.70;;;12.30;99.90;;;;;;5042042;28;20436;-62
2024/03/13 11:03:57;;;;;;;11.77;8.10;;;12.30;99.90;;;;;;5042231;28;20540;-61
2024/03/13 11:06:25;;;;;;;9.17;7.30;;;12.40;99.90;;;;;;5041769;28;20468;-62
2024/03/13 11:08:52;;;;;;;10.03;8.83;;;12.30;99.90;;;;;;5040982;28;20445;-63
2024/03/13 11:11:18;;;;;;;12.10;7.50;;;12.20;99.90;;;;;;5040813;28;20436;-63
2024/03/13 11:13:50;;;;;;;11.73;8.07;;;12.10;99.90;;;;;;5039754;28;20503;-63
2024/03/13 11:16:17;;;;;;;11.90;8.00;;;12.00;99.90;;;;;;5040814;28;20510;-62
2024/03/13 11:18:44;;;;;;;10.43;8.33;;;11.90;99.90;;;;;;5044935;28;20456;-63
2024/03/13 11:21:12;;;;;;;8.67;7.30;;;12.00;99.90;;;;;;5046321;28;20439;-63
2024/03/13 11:23:40;;;;;;;11.00;7.83;;;12.10;99.90;;;;;;5046216;28;20458;-63
2024/03/13 11:26:09;;;;;;;9.77;7.93;;;12.30;99.90;;;;;;5041941;28;20486;-63
2024/03/13 11:28:36;;;;;;;9.33;7.10;;;12.50;99.90;;;;;;5041580;28;20448;-65
2024/03/13 11:31:02;;;;;;;11.53;7.20;;;12.60;99.90;;;;;;5042199;28;20440;-63
2024/03/13 11:33:29;;;;;;;7.83;6.67;;;12.60;99.90;;;;;;5040936;28;20482;-63
2024/03/13 11:35:56;;;;;;;8.90;6.20;;;12.80;99.90;;;;;;5039738;28;20874;-63
2024/03/13 11:38:23;;;;;;;10.50;7.90;;;13.10;99.90;;;;;;5038580;28;20530;-63
2024/03/13 11:40:50;;;;;;;10.67;7.67;;;13.10;99.90;;;;;;5038482;28;20955;-63
2024/03/13 11:43:22;;;;;;;10.23;7.00;;;13.20;99.90;;;;;;5038968;28;20812;-63
2024/03/13 11:45:49;;;;;;;9.93;7.43;;;13.30;99.90;;;;;;5038846;28;20460;-63
2024/03/13 11:48:16;;;;;;;8.00;6.43;;;13.60;99.90;;;;;;5038834;28;20930;-62
2024/03/13 11:51:10;;;;;;;9.13;6.83;;;13.70;99.90;;;;;;5040677;28;20439;-62
2024/03/13 11:53:38;;;;;;;8.87;6.10;;;13.80;99.90;;;;;;5056511;28;20490;-63
2024/03/13 11:56:06;;;;;;;7.63;5.87;;;13.80;99.90;;;;;;5040110;28;20883;-62
2024/03/13 11:58:34;;;;;;;6.73;5.87;;;13.90;99.90;;;;;;5039271;28;20886;-63
2024/03/13 12:01:01;;;;;;;6.63;5.80;;;14.10;99.90;;;;;;5038978;28;20939;-63
2024/03/13 12:03:30;;;;;;;8.13;6.40;;;14.20;99.50;;;;;;5039230;28;20437;-63
2024/03/13 12:05:59;;;;;;;7.70;6.20;;;14.30;98.70;;;;;;5039251;28;20589;-62
2024/03/13 12:08:27;;;;;;;8.47;5.97;;;14.20;98.30;;;;;;5040958;28;20473;-63
2024/03/13 12:10:55;;;;;;;11.40;7.07;;;14.20;98.10;;;;;;5045028;28;20440;-63
2024/03/13 12:13:21;;;;;;;10.70;7.73;;;14.00;98.20;;;;;;5041088;28;20504;-62
2024/03/13 12:15:48;;;;;;;7.97;7.10;;;14.00;98.80;;;;;;5039194;28;20490;-64
2024/03/13 12:18:16;;;;;;;8.17;6.47;;;14.00;99.00;;;;;;5039206;28;20441;-62
2024/03/13 12:20:43;;;;;;;8.00;7.07;;;14.10;98.90;;;;;;5039959;28;20457;-63
2024/03/13 12:23:12;;;;;;;10.70;7.20;;;14.10;98.30;;;;;;5039156;28;20435;-61
2024/03/13 12:25:40;;;;;;;7.67;5.77;;;14.00;98.30;;;;;;5039733;28;20531;-62
2024/03/13 12:28:12;;;;;;;9.33;6.83;;;13.80;98.50;;;;;;5039522;28;20821;-62
2024/03/13 12:30:39;;;;;;;9.20;7.10;;;13.70;98.80;;;;;;5039576;28;20432;-63
2024/03/13 12:33:06;;;;;;;9.07;6.80;;;13.50;99.40;;;;;;5039681;28;20824;-62
2024/03/13 12:35:33;;;;;;;9.20;7.27;;;13.40;99.90;;;;;;5047380;28;20530;-63
2024/03/13 12:38:01;;;;;;;8.57;6.90;;;13.40;99.90;;;;;;5047194;28;20436;-63
2024/03/13 12:40:27;;;;;;;8.20;6.40;;;13.60;99.90;;;;;;5044281;28;20444;-63
2024/03/13 12:42:54;;;;;;;11.20;8.07;;;13.70;99.90;;;;;;5043202;28;20432;-63
2024/03/13 12:45:21;;;;;;;11.07;7.80;;;13.80;99.90;;;;;;5042489;28;20457;-64
2024/03/13 12:47:48;;;;;;;8.37;7.10;;;13.90;99.90;;;;;;5041906;28;20441;-63
2024/03/13 12:50:15;;;;;;;10.07;7.63;;;14.00;99.90;;;;;;5043578;28;20498;-61
2024/03/13 12:52:44;;;;;;;12.80;7.63;;;14.20;99.90;;;;;;5043934;28;20441;-63
2024/03/13 12:55:12;;;;;;;8.97;7.00;;;14.30;99.40;;;;;;5044444;28;20524;-65
2024/03/13 12:57:39;;;;;;;10.03;7.07;;;14.20;99.30;;;;;;5043473;28;20531;-62
2024/03/13 13:00:13;;;;;;;9.63;7.03;;;14.20;99.40;;;;;;5044124;28;20440;-64